sensor_id;sensor_type;location;lat;lon;timestamp;temperature;humidity
20370;DHT22;10344;47.592;9.600;2023-03-19T00:00:20;8.20;99.90
20370;DHT22;10344;47.592;9.600;2023-03-19T00:02:51;8.30;99.90
20370;DHT22;10344;47.592;9.600;2023-03-19T00:05:19;8.20;99.90
20370;DHT22;10344;47.592;9.600;2023-03-19T00:07:45;8.30;99.90
20370;DHT22;10344;47.592;9.600;2023-03-19T00:10:14;8.30;99.90
20370;DHT22;10344;47.592;9.600;2023-03-19T00:12:39;8.30;99.90
20370;DHT22;10344;47.592;9.600;2023-03-19T00:15:05;8.40;99.90
20370;DHT22;10344;47.592;9.600;2023-03-19T00:17:34;8.40;99.90
20370;DHT22;10344;47.592;9.600;2023-03-19T00:20:00;8.50;99.90
20370;DHT22;10344;47.592;9.600;2023-03-19T00:22:26;8.40;99.90
20370;DHT22;10344;47.592;9.600;2023-03-19T00:24:54;8.40;99.90
20370;DHT22;10344;47.592;9.600;2023-03-19T00:27:20;8.40;99.90
20370;DHT22;10344;47.592;9.600;2023-03-19T00:29:45;8.40;99.90
20370;DHT22;10344;47.592;9.600;2023-03-19T00:32:14;8.30;99.90
20370;DHT22;10344;47.592;9.600;2023-03-19T00:34:42;8.30;99.90
20370;DHT22;10344;47.592;9.600;2023-03-19T00:37:10;8.30;99.90
20370;DHT22;10344;47.592;9.600;2023-03-19T00:39:38;8.30;99.90
20370;DHT22;10344;47.592;9.600;2023-03-19T00:42:04;8.30;99.90
20370;DHT22;10344;47.592;9.600;2023-03-19T00:44:30;8.20;99.90
20370;DHT22;10344;47.592;9.600;2023-03-19T00:46:58;8.20;99.90
20370;DHT22;10344;47.592;9.600;2023-03-19T00:49:23;8.30;99.90
20370;DHT22;10344;47.592;9.600;2023-03-19T00:51:50;8.30;99.90
20370;DHT22;10344;47.592;9.600;2023-03-19T00:54:18;8.30;99.90
20370;DHT22;10344;47.592;9.600;2023-03-19T00:56:49;8.40;99.90
20370;DHT22;10344;47.592;9.600;2023-03-19T00:59:14;8.30;99.90
20370;DHT22;10344;47.592;9.600;2023-03-19T01:01:40;8.30;99.90
20370;DHT22;10344;47.592;9.600;2023-03-19T01:04:13;8.30;99.90
20370;DHT22;10344;47.592;9.600;2023-03-19T01:06:42;8.30;99.90
20370;DHT22;10344;47.592;9.600;2023-03-19T01:09:11;8.20;99.90
20370;DHT22;10344;47.592;9.600;2023-03-19T01:11:37;8.20;99.90
20370;DHT22;10344;47.592;9.600;2023-03-19T01:14:05;8.20;99.90
20370;DHT22;10344;47.592;9.600;2023-03-19T01:16:34;8.30;99.90
20370;DHT22;10344;47.592;9.600;2023-03-19T01:19:00;8.20;99.90
20370;DHT22;10344;47.592;9.600;2023-03-19T01:21:29;8.20;99.90
20370;DHT22;10344;47.592;9.600;2023-03-19T01:24:00;8.20;99.90
20370;DHT22;10344;47.592;9.600;2023-03-19T01:26:26;8.30;99.90
20370;DHT22;10344;47.592;9.600;2023-03-19T01:28:55;8.30;99.90
20370;DHT22;10344;47.592;9.600;2023-03-19T01:31:26;8.30;99.90
20370;DHT22;10344;47.592;9.600;2023-03-19T01:33:51;8.40;99.90
20370;DHT22;10344;47.592;9.600;2023-03-19T01:36:20;8.40;99.90
20370;DHT22;10344;47.592;9.600;2023-03-19T01:38:48;8.40;99.90
20370;DHT22;10344;47.592;9.600;2023-03-19T01:41:16;8.50;99.90
20370;DHT22;10344;47.592;9.600;2023-03-19T01:43:42;8.50;99.90
20370;DHT22;10344;47.592;9.600;2023-03-19T01:46:29;8.50;99.90
20370;DHT22;10344;47.592;9.600;2023-03-19T01:49:06;8.50;99.90
20370;DHT22;10344;47.592;9.600;2023-03-19T01:51:38;8.60;99.90
20370;DHT22;10344;47.592;9.600;2023-03-19T01:54:12;8.50;99.90
20370;DHT22;10344;47.592;9.600;2023-03-19T01:56:41;8.60;99.90
20370;DHT22;10344;47.592;9.600;2023-03-19T01:59:16;8.50;99.90
20370;DHT22;10344;47.592;9.600;2023-03-19T02:01:54;8.50;99.90
20370;DHT22;10344;47.592;9.600;2023-03-19T02:04:22;8.50;99.90
20370;DHT22;10344;47.592;9.600;2023-03-19T02:06:49;8.50;99.90
20370;DHT22;10344;47.592;9.600;2023-03-19T02:09:18;8.50;99.90
20370;DHT22;10344;47.592;9.600;2023-03-19T02:11:44;8.60;99.90
20370;DHT22;10344;47.592;9.600;2023-03-19T02:14:10;8.60;99.90
20370;DHT22;10344;47.592;9.600;2023-03-19T02:16:37;8.60;99.90
20370;DHT22;10344;47.592;9.600;2023-03-19T02:19:05;8.60;99.90
20370;DHT22;10344;47.592;9.600;2023-03-19T02:21:40;8.60;99.90
20370;DHT22;10344;47.592;9.600;2023-03-19T02:24:24;8.60;99.90
20370;DHT22;10344;47.592;9.600;2023-03-19T02:26:52;8.60;99.90
20370;DHT22;10344;47.592;9.600;2023-03-19T02:29:18;8.70;99.90
20370;DHT22;10344;47.592;9.600;2023-03-19T02:31:46;8.80;99.90
20370;DHT22;10344;47.592;9.600;2023-03-19T02:36:54;8.80;99.90
20370;DHT22;10344;47.592;9.600;2023-03-19T02:39:37;8.80;99.90
20370;DHT22;10344;47.592;9.600;2023-03-19T02:42:04;8.80;99.90
20370;DHT22;10344;47.592;9.600;2023-03-19T02:44:31;8.80;99.90
20370;DHT22;10344;47.592;9.600;2023-03-19T02:46:56;8.80;99.90
20370;DHT22;10344;47.592;9.600;2023-03-19T02:49:22;8.80;99.90
20370;DHT22;10344;47.592;9.600;2023-03-19T02:51:48;8.90;99.90
20370;DHT22;10344;47.592;9.600;2023-03-19T02:54:14;8.90;99.90
20370;DHT22;10344;47.592;9.600;2023-03-19T02:56:45;8.80;99.90
20370;DHT22;10344;47.592;9.600;2023-03-19T02:59:13;8.90;99.90
20370;DHT22;10344;47.592;9.600;2023-03-19T03:01:39;8.90;99.90
20370;DHT22;10344;47.592;9.600;2023-03-19T03:04:05;8.90;99.90
20370;DHT22;10344;47.592;9.600;2023-03-19T03:06:31;8.90;99.90
20370;DHT22;10344;47.592;9.600;2023-03-19T03:08:59;9.00;99.90
20370;DHT22;10344;47.592;9.600;2023-03-19T03:11:25;8.90;99.90
20370;DHT22;10344;47.592;9.600;2023-03-19T03:13:53;8.90;99.90
20370;DHT22;10344;47.592;9.600;2023-03-19T03:16:18;9.00;99.90
20370;DHT22;10344;47.592;9.600;2023-03-19T03:18:44;9.00;99.90
20370;DHT22;10344;47.592;9.600;2023-03-19T03:21:10;9.00;99.90
20370;DHT22;10344;47.592;9.600;2023-03-19T03:23:38;9.00;99.90
20370;DHT22;10344;47.592;9.600;2023-03-19T03:26:07;9.00;99.90
20370;DHT22;10344;47.592;9.600;2023-03-19T03:28:32;9.00;99.90
20370;DHT22;10344;47.592;9.600;2023-03-19T03:30:59;9.00;99.90
20370;DHT22;10344;47.592;9.600;2023-03-19T03:33:29;9.00;99.90
20370;DHT22;10344;47.592;9.600;2023-03-19T03:35:57;8.90;99.90
20370;DHT22;10344;47.592;9.600;2023-03-19T03:38:23;8.90;99.90
20370;DHT22;10344;47.592;9.600;2023-03-19T03:40:54;9.00;99.90
20370;DHT22;10344;47.592;9.600;2023-03-19T03:43:20;9.00;99.90
20370;DHT22;10344;47.592;9.600;2023-03-19T03:45:47;8.90;99.90
20370;DHT22;10344;47.592;9.600;2023-03-19T03:48:16;8.90;99.90
20370;DHT22;10344;47.592;9.600;2023-03-19T03:50:45;8.80;99.90
20370;DHT22;10344;47.592;9.600;2023-03-19T03:53:11;8.80;99.90
20370;DHT22;10344;47.592;9.600;2023-03-19T03:55:37;8.80;99.90
20370;DHT22;10344;47.592;9.600;2023-03-19T03:58:03;8.80;99.90
20370;DHT22;10344;47.592;9.600;2023-03-19T04:00:28;9.00;99.90
20370;DHT22;10344;47.592;9.600;2023-03-19T04:02:55;9.00;99.90
20370;DHT22;10344;47.592;9.600;2023-03-19T04:05:21;9.00;99.90
20370;DHT22;10344;47.592;9.600;2023-03-19T04:07:47;9.00;99.90
20370;DHT22;10344;47.592;9.600;2023-03-19T04:10:13;9.00;99.90
20370;DHT22;10344;47.592;9.600;2023-03-19T04:12:40;9.10;99.90
20370;DHT22;10344;47.592;9.600;2023-03-19T04:15:07;9.10;99.90
20370;DHT22;10344;47.592;9.600;2023-03-19T04:17:33;9.10;99.90
20370;DHT22;10344;47.592;9.600;2023-03-19T04:20:00;9.10;99.90
20370;DHT22;10344;47.592;9.600;2023-03-19T04:22:27;9.00;99.90
20370;DHT22;10344;47.592;9.600;2023-03-19T04:24:53;8.90;99.90
20370;DHT22;10344;47.592;9.600;2023-03-19T04:27:19;8.90;99.90
20370;DHT22;10344;47.592;9.600;2023-03-19T04:29:53;8.90;99.90
20370;DHT22;10344;47.592;9.600;2023-03-19T04:32:19;8.90;99.90
20370;DHT22;10344;47.592;9.600;2023-03-19T04:34:48;8.90;99.90
20370;DHT22;10344;47.592;9.600;2023-03-19T04:37:16;8.80;99.90
20370;DHT22;10344;47.592;9.600;2023-03-19T04:39:46;8.80;99.90
20370;DHT22;10344;47.592;9.600;2023-03-19T04:42:13;8.80;99.90
20370;DHT22;10344;47.592;9.600;2023-03-19T04:44:39;8.80;99.90
20370;DHT22;10344;47.592;9.600;2023-03-19T04:47:07;8.80;99.90
20370;DHT22;10344;47.592;9.600;2023-03-19T04:49:34;8.80;99.90
20370;DHT22;10344;47.592;9.600;2023-03-19T04:52:01;8.70;99.90
20370;DHT22;10344;47.592;9.600;2023-03-19T04:54:27;8.80;99.90
20370;DHT22;10344;47.592;9.600;2023-03-19T04:56:52;8.80;99.90
20370;DHT22;10344;47.592;9.600;2023-03-19T04:59:20;8.80;99.90
20370;DHT22;10344;47.592;9.600;2023-03-19T05:01:46;8.70;99.90
20370;DHT22;10344;47.592;9.600;2023-03-19T05:04:12;8.70;99.90
20370;DHT22;10344;47.592;9.600;2023-03-19T05:06:40;8.80;99.90
20370;DHT22;10344;47.592;9.600;2023-03-19T05:09:06;8.70;99.90
20370;DHT22;10344;47.592;9.600;2023-03-19T05:11:32;8.70;99.90
20370;DHT22;10344;47.592;9.600;2023-03-19T05:14:04;8.70;99.90
20370;DHT22;10344;47.592;9.600;2023-03-19T05:16:33;8.70;99.90
20370;DHT22;10344;47.592;9.600;2023-03-19T05:19:06;8.70;99.90
20370;DHT22;10344;47.592;9.600;2023-03-19T05:21:35;8.70;99.90
20370;DHT22;10344;47.592;9.600;2023-03-19T05:24:01;8.60;99.90
20370;DHT22;10344;47.592;9.600;2023-03-19T05:26:27;8.60;99.90
20370;DHT22;10344;47.592;9.600;2023-03-19T05:28:59;8.60;99.90
20370;DHT22;10344;47.592;9.600;2023-03-19T05:31:24;8.60;99.90
20370;DHT22;10344;47.592;9.600;2023-03-19T05:33:50;8.50;99.90
20370;DHT22;10344;47.592;9.600;2023-03-19T05:36:16;8.50;99.90
20370;DHT22;10344;47.592;9.600;2023-03-19T05:38:55;8.50;99.90
20370;DHT22;10344;47.592;9.600;2023-03-19T05:41:21;8.50;99.90
20370;DHT22;10344;47.592;9.600;2023-03-19T05:43:46;8.40;99.90
20370;DHT22;10344;47.592;9.600;2023-03-19T05:46:12;8.50;99.90
20370;DHT22;10344;47.592;9.600;2023-03-19T05:48:41;8.50;99.90
20370;DHT22;10344;47.592;9.600;2023-03-19T05:51:09;8.40;99.90
20370;DHT22;10344;47.592;9.600;2023-03-19T05:53:38;8.50;99.90
20370;DHT22;10344;47.592;9.600;2023-03-19T05:56:04;8.50;99.90
20370;DHT22;10344;47.592;9.600;2023-03-19T05:58:29;8.50;99.90
20370;DHT22;10344;47.592;9.600;2023-03-19T06:00:57;8.50;99.90
20370;DHT22;10344;47.592;9.600;2023-03-19T06:03:23;8.50;99.90
20370;DHT22;10344;47.592;9.600;2023-03-19T06:05:59;8.50;99.90
20370;DHT22;10344;47.592;9.600;2023-03-19T06:08:25;8.60;99.90
20370;DHT22;10344;47.592;9.600;2023-03-19T06:10:53;8.60;99.90
20370;DHT22;10344;47.592;9.600;2023-03-19T06:13:19;8.70;99.90
20370;DHT22;10344;47.592;9.600;2023-03-19T06:15:47;8.70;99.90
20370;DHT22;10344;47.592;9.600;2023-03-19T06:18:15;8.70;99.90
20370;DHT22;10344;47.592;9.600;2023-03-19T06:20:41;8.80;99.90
20370;DHT22;10344;47.592;9.600;2023-03-19T06:23:07;8.90;99.90
20370;DHT22;10344;47.592;9.600;2023-03-19T06:25:33;8.90;99.90
20370;DHT22;10344;47.592;9.600;2023-03-19T06:28:02;9.00;99.90
20370;DHT22;10344;47.592;9.600;2023-03-19T06:30:28;9.10;99.90
20370;DHT22;10344;47.592;9.600;2023-03-19T06:32:55;9.10;99.90
20370;DHT22;10344;47.592;9.600;2023-03-19T06:35:21;9.20;99.90
20370;DHT22;10344;47.592;9.600;2023-03-19T06:37:47;9.30;99.90
20370;DHT22;10344;47.592;9.600;2023-03-19T06:40:17;9.40;99.90
20370;DHT22;10344;47.592;9.600;2023-03-19T06:42:46;9.50;99.90
20370;DHT22;10344;47.592;9.600;2023-03-19T06:45:14;9.60;99.90
20370;DHT22;10344;47.592;9.600;2023-03-19T06:47:44;9.80;99.90
20370;DHT22;10344;47.592;9.600;2023-03-19T06:50:17;9.90;99.90
20370;DHT22;10344;47.592;9.600;2023-03-19T06:52:47;10.10;99.90
20370;DHT22;10344;47.592;9.600;2023-03-19T06:55:18;10.20;99.90
20370;DHT22;10344;47.592;9.600;2023-03-19T06:57:48;10.40;99.90
20370;DHT22;10344;47.592;9.600;2023-03-19T07:00:19;10.60;99.90
20370;DHT22;10344;47.592;9.600;2023-03-19T07:02:49;11.00;99.90
20370;DHT22;10344;47.592;9.600;2023-03-19T07:05:15;11.60;99.90
20370;DHT22;10344;47.592;9.600;2023-03-19T07:07:42;12.40;99.90
20370;DHT22;10344;47.592;9.600;2023-03-19T07:10:08;12.90;99.90
20370;DHT22;10344;47.592;9.600;2023-03-19T07:12:35;13.10;99.90
20370;DHT22;10344;47.592;9.600;2023-03-19T07:15:05;13.30;99.90
20370;DHT22;10344;47.592;9.600;2023-03-19T07:17:34;13.40;99.90
20370;DHT22;10344;47.592;9.600;2023-03-19T07:20:06;13.20;99.90
20370;DHT22;10344;47.592;9.600;2023-03-19T07:22:34;13.10;99.90
20370;DHT22;10344;47.592;9.600;2023-03-19T07:25:00;13.10;99.90
20370;DHT22;10344;47.592;9.600;2023-03-19T07:27:26;13.00;99.90
20370;DHT22;10344;47.592;9.600;2023-03-19T07:29:51;12.80;99.90
20370;DHT22;10344;47.592;9.600;2023-03-19T07:32:17;12.70;99.90
20370;DHT22;10344;47.592;9.600;2023-03-19T07:34:42;12.50;99.90
20370;DHT22;10344;47.592;9.600;2023-03-19T07:37:08;12.40;99.90
20370;DHT22;10344;47.592;9.600;2023-03-19T07:39:36;12.30;99.90
20370;DHT22;10344;47.592;9.600;2023-03-19T07:42:04;12.40;99.90
20370;DHT22;10344;47.592;9.600;2023-03-19T07:44:32;12.70;99.90
20370;DHT22;10344;47.592;9.600;2023-03-19T07:47:04;12.90;99.90
20370;DHT22;10344;47.592;9.600;2023-03-19T07:49:32;12.90;99.90
20370;DHT22;10344;47.592;9.600;2023-03-19T07:52:00;13.00;99.90
20370;DHT22;10344;47.592;9.600;2023-03-19T07:54:26;13.10;99.90
20370;DHT22;10344;47.592;9.600;2023-03-19T07:56:54;13.40;99.90
20370;DHT22;10344;47.592;9.600;2023-03-19T07:59:20;14.00;99.90
20370;DHT22;10344;47.592;9.600;2023-03-19T08:01:46;14.90;99.90
20370;DHT22;10344;47.592;9.600;2023-03-19T08:04:11;16.00;99.90
20370;DHT22;10344;47.592;9.600;2023-03-19T08:06:37;17.30;99.90
20370;DHT22;10344;47.592;9.600;2023-03-19T08:09:07;18.00;99.90
20370;DHT22;10344;47.592;9.600;2023-03-19T08:11:35;18.70;99.90
20370;DHT22;10344;47.592;9.600;2023-03-19T08:14:03;19.70;99.90
20370;DHT22;10344;47.592;9.600;2023-03-19T08:16:29;20.70;99.90
20370;DHT22;10344;47.592;9.600;2023-03-19T08:19:02;21.30;99.90
20370;DHT22;10344;47.592;9.600;2023-03-19T08:21:30;21.60;99.90
20370;DHT22;10344;47.592;9.600;2023-03-19T08:23:57;21.50;99.90
20370;DHT22;10344;47.592;9.600;2023-03-19T08:26:23;21.70;99.90
20370;DHT22;10344;47.592;9.600;2023-03-19T08:28:51;21.30;99.90
20370;DHT22;10344;47.592;9.600;2023-03-19T08:31:20;20.70;99.90
20370;DHT22;10344;47.592;9.600;2023-03-19T08:33:46;20.40;99.90
20370;DHT22;10344;47.592;9.600;2023-03-19T08:36:13;19.70;99.90
20370;DHT22;10344;47.592;9.600;2023-03-19T08:38:40;19.10;99.90
20370;DHT22;10344;47.592;9.600;2023-03-19T08:41:06;18.60;99.90
20370;DHT22;10344;47.592;9.600;2023-03-19T08:43:34;18.50;99.90
20370;DHT22;10344;47.592;9.600;2023-03-19T08:46:04;18.70;99.90
20370;DHT22;10344;47.592;9.600;2023-03-19T08:48:30;18.50;99.90
20370;DHT22;10344;47.592;9.600;2023-03-19T08:51:02;18.40;99.90
20370;DHT22;10344;47.592;9.600;2023-03-19T08:53:31;18.30;99.90
20370;DHT22;10344;47.592;9.600;2023-03-19T08:55:59;18.60;99.90
20370;DHT22;10344;47.592;9.600;2023-03-19T08:58:29;18.80;99.90
20370;DHT22;10344;47.592;9.600;2023-03-19T09:01:21;19.30;99.90
20370;DHT22;10344;47.592;9.600;2023-03-19T09:03:48;20.10;99.90
20370;DHT22;10344;47.592;9.600;2023-03-19T09:06:13;21.00;99.90
20370;DHT22;10344;47.592;9.600;2023-03-19T09:08:39;21.60;99.90
20370;DHT22;10344;47.592;9.600;2023-03-19T09:11:06;22.40;99.10
20370;DHT22;10344;47.592;9.600;2023-03-19T09:13:33;22.90;97.00
20370;DHT22;10344;47.592;9.600;2023-03-19T09:16:02;22.90;97.20
20370;DHT22;10344;47.592;9.600;2023-03-19T09:18:30;22.60;96.50
20370;DHT22;10344;47.592;9.600;2023-03-19T09:20:57;22.10;96.80
20370;DHT22;10344;47.592;9.600;2023-03-19T09:23:22;21.70;96.60
20370;DHT22;10344;47.592;9.600;2023-03-19T09:25:51;21.30;98.80
20370;DHT22;10344;47.592;9.600;2023-03-19T09:28:17;21.40;99.80
20370;DHT22;10344;47.592;9.600;2023-03-19T09:30:51;21.50;97.40
20370;DHT22;10344;47.592;9.600;2023-03-19T09:33:18;21.40;96.20
20370;DHT22;10344;47.592;9.600;2023-03-19T09:35:52;21.20;96.30
20370;DHT22;10344;47.592;9.600;2023-03-19T09:38:19;20.70;95.70
20370;DHT22;10344;47.592;9.600;2023-03-19T09:44:03;20.30;97.10
20370;DHT22;10344;47.592;9.600;2023-03-19T09:46:44;20.40;96.10
20370;DHT22;10344;47.592;9.600;2023-03-19T09:49:23;20.70;96.30
20370;DHT22;10344;47.592;9.600;2023-03-19T09:57:56;20.60;95.50
20370;DHT22;10344;47.592;9.600;2023-03-19T10:00:25;21.10;97.00
20370;DHT22;10344;47.592;9.600;2023-03-19T10:05:41;21.80;94.50
20370;DHT22;10344;47.592;9.600;2023-03-19T10:11:00;22.30;94.10
20370;DHT22;10344;47.592;9.600;2023-03-19T10:13:45;22.40;94.60
20370;DHT22;10344;47.592;9.600;2023-03-19T10:16:26;22.20;92.80
20370;DHT22;10344;47.592;9.600;2023-03-19T10:18:57;21.70;94.40
20370;DHT22;10344;47.592;9.600;2023-03-19T10:21:34;21.50;93.70
20370;DHT22;10344;47.592;9.600;2023-03-19T10:24:29;21.30;94.60
20370;DHT22;10344;47.592;9.600;2023-03-19T10:27:18;21.10;93.00
20370;DHT22;10344;47.592;9.600;2023-03-19T10:29:52;21.10;93.50
20370;DHT22;10344;47.592;9.600;2023-03-19T10:34:57;21.50;95.40
20370;DHT22;10344;47.592;9.600;2023-03-19T10:37:29;22.00;92.70
20370;DHT22;10344;47.592;9.600;2023-03-19T10:40:05;22.30;91.40
20370;DHT22;10344;47.592;9.600;2023-03-19T10:43:06;22.40;91.30
20370;DHT22;10344;47.592;9.600;2023-03-19T10:45:42;21.90;91.30
20370;DHT22;10344;47.592;9.600;2023-03-19T10:48:14;21.40;92.10
20370;DHT22;10344;47.592;9.600;2023-03-19T10:51:15;20.90;92.60
20370;DHT22;10344;47.592;9.600;2023-03-19T10:53:43;20.50;93.80
20370;DHT22;10344;47.592;9.600;2023-03-19T10:56:28;20.40;94.00
20370;DHT22;10344;47.592;9.600;2023-03-19T10:59:06;20.20;93.40
20370;DHT22;10344;47.592;9.600;2023-03-19T11:01:46;20.00;94.20
20370;DHT22;10344;47.592;9.600;2023-03-19T11:04:25;20.00;95.30
20370;DHT22;10344;47.592;9.600;2023-03-19T11:09:55;20.20;93.60
20370;DHT22;10344;47.592;9.600;2023-03-19T11:12:32;19.70;94.00
20370;DHT22;10344;47.592;9.600;2023-03-19T11:15:02;19.40;95.30
20370;DHT22;10344;47.592;9.600;2023-03-19T11:17:45;19.30;96.10
20370;DHT22;10344;47.592;9.600;2023-03-19T11:22:54;19.10;94.60
20370;DHT22;10344;47.592;9.600;2023-03-19T11:25:34;18.90;96.60
20370;DHT22;10344;47.592;9.600;2023-03-19T11:28:10;18.90;94.60
20370;DHT22;10344;47.592;9.600;2023-03-19T11:33:53;18.70;95.80
20370;DHT22;10344;47.592;9.600;2023-03-19T11:36:30;18.90;95.10
20370;DHT22;10344;47.592;9.600;2023-03-19T11:39:17;19.00;94.20
20370;DHT22;10344;47.592;9.600;2023-03-19T11:44:41;19.20;96.00
20370;DHT22;10344;47.592;9.600;2023-03-19T11:50:31;20.00;94.50
20370;DHT22;10344;47.592;9.600;2023-03-19T11:53:33;20.60;94.50
20370;DHT22;10344;47.592;9.600;2023-03-19T11:56:42;20.90;94.80
20370;DHT22;10344;47.592;9.600;2023-03-19T12:10:37;20.00;93.30
20370;DHT22;10344;47.592;9.600;2023-03-19T12:13:25;19.60;94.90
20370;DHT22;10344;47.592;9.600;2023-03-19T12:16:28;19.50;95.60
20370;DHT22;10344;47.592;9.600;2023-03-19T12:27:31;19.90;97.10
20370;DHT22;10344;47.592;9.600;2023-03-19T12:33:08;20.10;96.30
20370;DHT22;10344;47.592;9.600;2023-03-19T12:35:40;20.10;95.70
20370;DHT22;10344;47.592;9.600;2023-03-19T12:43:35;20.10;95.70
20370;DHT22;10344;47.592;9.600;2023-03-19T12:46:10;19.90;95.70
20370;DHT22;10344;47.592;9.600;2023-03-19T12:48:45;19.90;95.70
20370;DHT22;10344;47.592;9.600;2023-03-19T12:51:17;19.90;95.60
20370;DHT22;10344;47.592;9.600;2023-03-19T12:59:31;19.80;95.60
20370;DHT22;10344;47.592;9.600;2023-03-19T13:05:06;20.10;96.80
20370;DHT22;10344;47.592;9.600;2023-03-19T13:08:05;20.20;96.00
20370;DHT22;10344;47.592;9.600;2023-03-19T13:10:41;20.10;96.20
20370;DHT22;10344;47.592;9.600;2023-03-19T13:13:37;20.00;96.20
20370;DHT22;10344;47.592;9.600;2023-03-19T13:21:50;19.70;96.60
20370;DHT22;10344;47.592;9.600;2023-03-19T13:26:54;19.30;96.10
20370;DHT22;10344;47.592;9.600;2023-03-19T13:29:31;19.30;96.90
20370;DHT22;10344;47.592;9.600;2023-03-19T13:32:24;19.40;96.70
20370;DHT22;10344;47.592;9.600;2023-03-19T13:37:59;19.30;95.10
20370;DHT22;10344;47.592;9.600;2023-03-19T13:40:44;19.30;96.20
20370;DHT22;10344;47.592;9.600;2023-03-19T13:46:01;19.00;96.40
20370;DHT22;10344;47.592;9.600;2023-03-19T13:56:05;18.60;97.40
20370;DHT22;10344;47.592;9.600;2023-03-19T13:58:54;18.50;98.40
20370;DHT22;10344;47.592;9.600;2023-03-19T14:01:39;18.50;98.70
20370;DHT22;10344;47.592;9.600;2023-03-19T14:04:38;18.40;97.50
20370;DHT22;10344;47.592;9.600;2023-03-19T14:07:17;18.30;98.60
20370;DHT22;10344;47.592;9.600;2023-03-19T14:26:16;17.80;99.20
20370;DHT22;10344;47.592;9.600;2023-03-19T14:34:33;17.40;98.90
20370;DHT22;10344;47.592;9.600;2023-03-19T14:37:22;17.30;99.40
20370;DHT22;10344;47.592;9.600;2023-03-19T14:53:52;16.70;99.90
20370;DHT22;10344;47.592;9.600;2023-03-19T14:56:30;16.20;99.90
20370;DHT22;10344;47.592;9.600;2023-03-19T14:59:00;15.70;99.90
20370;DHT22;10344;47.592;9.600;2023-03-19T15:01:33;15.20;99.90
20370;DHT22;10344;47.592;9.600;2023-03-19T15:04:06;14.90;99.90
20370;DHT22;10344;47.592;9.600;2023-03-19T15:06:56;14.50;99.90
20370;DHT22;10344;47.592;9.600;2023-03-19T15:09:31;14.20;99.90
20370;DHT22;10344;47.592;9.600;2023-03-19T15:17:37;13.70;99.90
20370;DHT22;10344;47.592;9.600;2023-03-19T15:20:14;13.40;99.90
20370;DHT22;10344;47.592;9.600;2023-03-19T15:22:41;13.20;99.90
20370;DHT22;10344;47.592;9.600;2023-03-19T15:25:10;12.80;99.90
20370;DHT22;10344;47.592;9.600;2023-03-19T15:27:42;12.40;99.90
20370;DHT22;10344;47.592;9.600;2023-03-19T15:30:21;12.10;99.90
20370;DHT22;10344;47.592;9.600;2023-03-19T15:32:50;11.70;99.90
20370;DHT22;10344;47.592;9.600;2023-03-19T15:35:16;11.40;99.90
20370;DHT22;10344;47.592;9.600;2023-03-19T15:37:47;11.20;99.90
20370;DHT22;10344;47.592;9.600;2023-03-19T15:40:17;11.20;99.90
20370;DHT22;10344;47.592;9.600;2023-03-19T15:42:46;11.20;99.90
20370;DHT22;10344;47.592;9.600;2023-03-19T15:45:18;11.30;99.90
20370;DHT22;10344;47.592;9.600;2023-03-19T15:48:04;11.30;99.90
20370;DHT22;10344;47.592;9.600;2023-03-19T15:50:40;11.40;99.90
20370;DHT22;10344;47.592;9.600;2023-03-19T15:53:17;11.40;99.90
20370;DHT22;10344;47.592;9.600;2023-03-19T15:55:48;11.30;99.90
20370;DHT22;10344;47.592;9.600;2023-03-19T15:58:30;11.20;99.90
20370;DHT22;10344;47.592;9.600;2023-03-19T16:00:59;11.10;99.90
20370;DHT22;10344;47.592;9.600;2023-03-19T16:03:28;11.10;99.90
20370;DHT22;10344;47.592;9.600;2023-03-19T16:06:13;11.00;99.90
20370;DHT22;10344;47.592;9.600;2023-03-19T16:08:46;10.90;99.90
20370;DHT22;10344;47.592;9.600;2023-03-19T16:13:58;10.90;99.90
20370;DHT22;10344;47.592;9.600;2023-03-19T16:16:28;10.90;99.90
20370;DHT22;10344;47.592;9.600;2023-03-19T16:19:00;10.90;99.90
20370;DHT22;10344;47.592;9.600;2023-03-19T16:21:36;10.90;99.90
20370;DHT22;10344;47.592;9.600;2023-03-19T16:24:29;11.00;99.90
20370;DHT22;10344;47.592;9.600;2023-03-19T16:26:57;11.10;99.90
20370;DHT22;10344;47.592;9.600;2023-03-19T16:31:59;11.10;99.90
20370;DHT22;10344;47.592;9.600;2023-03-19T16:34:45;11.10;99.90
20370;DHT22;10344;47.592;9.600;2023-03-19T16:47:44;11.00;99.90
20370;DHT22;10344;47.592;9.600;2023-03-19T16:50:17;11.10;99.90
20370;DHT22;10344;47.592;9.600;2023-03-19T16:52:44;11.10;99.90
20370;DHT22;10344;47.592;9.600;2023-03-19T16:55:28;11.10;99.90
20370;DHT22;10344;47.592;9.600;2023-03-19T16:58:11;11.10;99.90
20370;DHT22;10344;47.592;9.600;2023-03-19T17:00:45;11.10;99.90
20370;DHT22;10344;47.592;9.600;2023-03-19T17:03:15;11.00;99.90
20370;DHT22;10344;47.592;9.600;2023-03-19T17:05:42;11.00;99.90
20370;DHT22;10344;47.592;9.600;2023-03-19T17:08:15;10.90;99.90
20370;DHT22;10344;47.592;9.600;2023-03-19T17:10:52;11.00;99.90
20370;DHT22;10344;47.592;9.600;2023-03-19T17:13:22;11.00;99.90
20370;DHT22;10344;47.592;9.600;2023-03-19T17:15:56;11.00;99.90
20370;DHT22;10344;47.592;9.600;2023-03-19T17:18:29;11.00;99.90
20370;DHT22;10344;47.592;9.600;2023-03-19T17:23:25;11.00;99.90
20370;DHT22;10344;47.592;9.600;2023-03-19T17:25:55;11.00;99.90
20370;DHT22;10344;47.592;9.600;2023-03-19T17:28:22;10.90;99.90
20370;DHT22;10344;47.592;9.600;2023-03-19T17:30:48;10.90;99.90
20370;DHT22;10344;47.592;9.600;2023-03-19T17:35:50;10.90;99.90
20370;DHT22;10344;47.592;9.600;2023-03-19T17:38:22;10.80;99.90
20370;DHT22;10344;47.592;9.600;2023-03-19T17:40:52;10.70;99.90
20370;DHT22;10344;47.592;9.600;2023-03-19T17:43:25;10.70;99.90
20370;DHT22;10344;47.592;9.600;2023-03-19T17:45:51;10.60;99.90
20370;DHT22;10344;47.592;9.600;2023-03-19T17:48:25;10.60;99.90
20370;DHT22;10344;47.592;9.600;2023-03-19T17:50:53;10.60;99.90
20370;DHT22;10344;47.592;9.600;2023-03-19T17:53:20;10.60;99.90
20370;DHT22;10344;47.592;9.600;2023-03-19T17:55:49;10.70;99.90
20370;DHT22;10344;47.592;9.600;2023-03-19T17:58:20;10.60;99.90
20370;DHT22;10344;47.592;9.600;2023-03-19T18:00:50;10.40;99.90
20370;DHT22;10344;47.592;9.600;2023-03-19T18:03:23;10.40;99.90
20370;DHT22;10344;47.592;9.600;2023-03-19T18:05:53;10.40;99.90
20370;DHT22;10344;47.592;9.600;2023-03-19T18:08:21;10.50;99.90
20370;DHT22;10344;47.592;9.600;2023-03-19T18:10:50;10.50;99.90
20370;DHT22;10344;47.592;9.600;2023-03-19T18:13:18;10.50;99.90
20370;DHT22;10344;47.592;9.600;2023-03-19T18:15:46;10.40;99.90
20370;DHT22;10344;47.592;9.600;2023-03-19T18:18:22;10.40;99.90
20370;DHT22;10344;47.592;9.600;2023-03-19T18:20:50;10.30;99.90
20370;DHT22;10344;47.592;9.600;2023-03-19T18:23:22;10.30;99.90
20370;DHT22;10344;47.592;9.600;2023-03-19T18:25:51;10.20;99.90
20370;DHT22;10344;47.592;9.600;2023-03-19T18:28:19;10.20;99.90
20370;DHT22;10344;47.592;9.600;2023-03-19T18:30:47;10.10;99.90
20370;DHT22;10344;47.592;9.600;2023-03-19T18:33:22;10.10;99.90
20370;DHT22;10344;47.592;9.600;2023-03-19T18:35:58;10.10;99.90